createdAt,value
2018-09-26T00:00:18.069Z,82.40
2018-09-26T00:01:18.043Z,82.40
2018-09-26T00:02:18.033Z,82.60
2018-09-26T00:03:18.035Z,82.50
2018-09-26T00:04:18.043Z,81.88
2018-09-26T00:05:18.004Z,82.09
2018-09-26T00:06:17.991Z,82.29
2018-09-26T00:07:17.979Z,81.67
2018-09-26T00:08:17.969Z,81.77
2018-09-26T00:09:17.956Z,81.47
2018-09-26T00:10:17.959Z,82.02
2018-09-26T00:11:17.933Z,82.43
2018-09-26T00:12:17.925Z,82.60
2018-09-26T00:13:17.913Z,82.09
2018-09-26T00:14:17.901Z,81.40
2018-09-26T00:15:17.904Z,81.71
2018-09-26T00:16:17.881Z,82.23
2018-09-26T00:17:17.867Z,82.33
2018-09-26T00:18:17.858Z,83.05
2018-09-26T00:19:17.847Z,82.12
2018-09-26T00:20:17.850Z,82.74
2018-09-26T00:21:17.847Z,82.54
2018-09-26T00:22:17.814Z,83.05
2018-09-26T00:23:17.803Z,83.56
2018-09-26T00:24:17.794Z,83.05
2018-09-26T00:25:17.781Z,83.05
2018-09-26T00:26:17.771Z,82.64
2018-09-26T00:27:17.772Z,82.74
2018-09-26T00:28:17.748Z,82.43
2018-09-26T00:29:17.735Z,83.05
2018-09-26T00:30:17.727Z,82.89
2018-09-26T00:31:17.731Z,82.37
2018-09-26T00:32:17.702Z,83.09
2018-09-26T00:33:17.693Z,82.89
2018-09-26T00:34:17.680Z,83.09
2018-09-26T00:35:17.669Z,82.68
2018-09-26T00:36:17.823Z,82.68
2018-09-26T00:37:17.663Z,82.78
2018-09-26T00:38:17.659Z,82.47
2018-09-26T00:39:17.628Z,82.68
2018-09-26T00:40:17.635Z,83.29
2018-09-26T00:41:17.607Z,82.16
2018-09-26T00:42:17.594Z,82.37
2018-09-26T00:43:17.584Z,82.37
2018-09-26T00:44:17.591Z,82.47
2018-09-26T00:45:17.563Z,82.16
2018-09-26T00:46:17.550Z,82.47
2018-09-26T00:47:17.540Z,82.68
2018-09-26T00:48:17.526Z,83.19
2018-09-26T00:49:17.516Z,83.61
2018-09-26T00:50:17.519Z,83.19
2018-09-26T00:51:17.496Z,82.33
2018-09-26T00:52:17.486Z,82.47
2018-09-26T00:53:17.471Z,82.47
2018-09-26T00:54:17.478Z,82.68
2018-09-26T00:55:17.452Z,83.29
2018-09-26T00:56:17.441Z,82.68
2018-09-26T00:57:17.427Z,83.09
2018-09-26T00:58:17.416Z,84.01
2018-09-26T00:59:17.446Z,83.50
2018-09-26T01:00:17.421Z,83.40
2018-09-26T01:01:17.386Z,83.61
2018-09-26T01:02:17.375Z,83.05
2018-09-26T01:03:17.362Z,82.74
2018-09-26T01:04:17.351Z,82.98
2018-09-26T01:05:17.343Z,82.33
2018-09-26T01:06:17.343Z,82.54
2018-09-26T01:07:17.317Z,81.81
2018-09-26T01:08:17.308Z,82.23
2018-09-26T01:09:17.298Z,81.71
2018-09-26T01:10:17.285Z,82.26
2018-09-26T01:11:17.294Z,83.19
2018-09-26T01:12:17.267Z,82.37
2018-09-26T01:13:17.252Z,82.23
2018-09-26T01:14:17.243Z,82.47
2018-09-26T01:15:17.230Z,82.02
2018-09-26T01:16:17.219Z,81.75
2018-09-26T01:17:17.239Z,82.33
2018-09-26T01:18:17.197Z,81.96
2018-09-26T01:19:17.190Z,81.71
2018-09-26T01:20:17.177Z,81.44
2018-09-26T01:21:17.179Z,82.37
2018-09-26T01:22:17.166Z,82.37
2018-09-26T01:23:17.148Z,83.09
2018-09-26T01:24:17.131Z,82.89
2018-09-26T01:25:17.122Z,81.96
2018-09-26T01:26:17.111Z,81.85
2018-09-26T01:27:17.112Z,81.75
2018-09-26T01:28:17.103Z,82.78
2018-09-26T01:29:17.078Z,82.57
2018-09-26T01:30:17.065Z,81.96
2018-09-26T01:31:17.058Z,82.26
2018-09-26T01:32:17.066Z,81.96
2018-09-26T01:33:17.035Z,81.44
2018-09-26T01:34:17.020Z,81.75
2018-09-26T01:35:17.011Z,81.44
2018-09-26T01:36:17.002Z,81.75
2018-09-26T01:37:16.987Z,82.06
2018-09-26T01:38:16.993Z,81.54
2018-09-26T01:39:16.982Z,81.34
2018-09-26T01:40:16.959Z,81.54
2018-09-26T01:41:16.979Z,81.23
2018-09-26T01:42:16.931Z,81.75
2018-09-26T01:43:16.937Z,81.34
2018-09-26T01:44:16.909Z,81.96
2018-09-26T01:45:16.915Z,81.34
2018-09-26T01:46:16.888Z,81.75
2018-09-26T01:47:16.883Z,81.96
2018-09-26T01:48:16.866Z,82.57
2018-09-26T01:49:16.874Z,82.37
2018-09-26T01:50:16.846Z,82.78
2018-09-26T01:51:16.833Z,83.61
2018-09-26T01:52:16.822Z,82.47
2018-09-26T01:53:16.811Z,81.96
2018-09-26T01:54:16.816Z,81.44
2018-09-26T01:55:16.792Z,81.44
2018-09-26T01:56:16.783Z,81.75
2018-09-26T01:57:16.778Z,81.34
2018-09-26T01:58:16.757Z,81.65
2018-09-26T01:59:16.760Z,81.54
2018-09-26T02:00:16.737Z,81.54
2018-09-26T02:01:16.727Z,81.34
2018-09-26T02:02:16.715Z,81.65
2018-09-26T02:03:16.705Z,81.13
2018-09-26T02:04:16.711Z,81.54
2018-09-26T02:05:16.680Z,81.23
2018-09-26T02:06:16.674Z,81.44
2018-09-26T02:07:16.661Z,81.75
2018-09-26T02:08:16.663Z,81.85
2018-09-26T02:09:16.651Z,81.75
2018-09-26T02:10:16.650Z,81.23
2018-09-26T02:11:16.615Z,82.26
2018-09-26T02:12:16.605Z,82.68
2018-09-26T02:13:16.591Z,82.26
2018-09-26T02:14:16.582Z,82.47
2018-09-26T02:15:17.578Z,81.96
2018-09-26T02:16:16.573Z,81.65
2018-09-26T02:17:16.550Z,81.54
2018-09-26T02:18:16.538Z,81.65
2018-09-26T02:19:16.528Z,81.54
2018-09-26T02:20:16.517Z,81.96
2018-09-26T02:21:16.505Z,81.75
2018-09-26T02:22:16.507Z,81.44
2018-09-26T02:23:16.487Z,81.75
2018-09-26T02:24:16.480Z,82.10
2018-09-26T02:25:16.464Z,82.30
2018-09-26T02:26:16.470Z,81.68
2018-09-26T02:27:16.439Z,81.54
2018-09-26T02:28:16.428Z,81.75
2018-09-26T02:29:16.423Z,81.34
2018-09-26T02:30:16.408Z,81.54
2018-09-26T02:31:16.396Z,81.68
2018-09-26T02:32:16.402Z,82.16
2018-09-26T02:33:16.372Z,82.37
2018-09-26T02:34:16.386Z,82.61
2018-09-26T02:35:16.350Z,81.99
2018-09-26T02:36:16.339Z,82.51
2018-09-26T02:37:16.328Z,83.03
2018-09-26T02:38:16.342Z,82.71
2018-09-26T02:39:16.308Z,82.10
2018-09-26T02:40:16.297Z,81.79
2018-09-26T02:41:16.290Z,82.30
2018-09-26T02:42:16.280Z,82.03
2018-09-26T02:43:16.264Z,82.40
2018-09-26T02:44:16.289Z,82.45
2018-09-26T02:45:16.267Z,83.13
2018-09-26T02:46:16.232Z,82.55
2018-09-26T02:47:16.219Z,82.34
2018-09-26T02:48:16.208Z,82.45
2018-09-26T02:49:16.202Z,82.45
2018-09-26T02:50:16.202Z,82.45
2018-09-26T02:51:16.198Z,82.65
2018-09-26T02:52:16.166Z,83.68
2018-09-26T02:53:16.155Z,83.17
2018-09-26T02:54:16.143Z,83.17
2018-09-26T02:55:16.132Z,83.20
2018-09-26T02:56:16.135Z,83.51
2018-09-26T02:57:16.119Z,83.78
2018-09-26T02:58:16.098Z,83.83
2018-09-26T02:59:16.091Z,83.89
2018-09-26T03:00:16.080Z,83.51
2018-09-26T03:01:16.092Z,83.51
2018-09-26T03:02:16.055Z,83.06
2018-09-26T03:03:16.045Z,83.58
2018-09-26T03:04:16.036Z,83.51
2018-09-26T03:05:16.024Z,84.23
2018-09-26T03:06:16.033Z,83.62
2018-09-26T03:07:16.014Z,83.51
2018-09-26T03:08:15.988Z,83.83
2018-09-26T03:09:15.982Z,83.62
2018-09-26T03:10:15.969Z,84.03
2018-09-26T03:11:15.959Z,83.72
2018-09-26T03:12:15.958Z,83.20
2018-09-26T03:13:15.936Z,83.83
2018-09-26T03:14:15.922Z,84.23
2018-09-26T03:15:15.913Z,84.03
2018-09-26T03:16:15.904Z,83.45
2018-09-26T03:17:15.940Z,84.03
2018-09-26T03:18:15.882Z,83.62
2018-09-26T03:19:15.870Z,84.13
2018-09-26T03:20:15.858Z,84.13
2018-09-26T03:21:15.892Z,83.72
2018-09-26T03:22:15.835Z,84.34
2018-09-26T03:23:15.841Z,84.13
2018-09-26T03:24:15.827Z,83.93
2018-09-26T03:25:15.803Z,84.28
2018-09-26T03:26:15.795Z,84.17
2018-09-26T03:27:15.780Z,84.03
2018-09-26T03:28:15.770Z,84.17
2018-09-26T03:29:15.773Z,83.83
2018-09-26T03:30:15.762Z,83.72
2018-09-26T03:31:15.737Z,83.55
2018-09-26T03:32:15.765Z,84.07
2018-09-26T03:33:15.718Z,84.07
2018-09-26T03:34:15.720Z,84.38
2018-09-26T03:35:15.694Z,84.38
2018-09-26T03:36:15.682Z,84.59
2018-09-26T03:37:15.673Z,84.59
2018-09-26T03:38:15.664Z,84.48
2018-09-26T03:39:15.651Z,84.59
2018-09-26T03:40:15.664Z,84.48
2018-09-26T03:41:15.631Z,84.69
2018-09-26T03:42:15.618Z,84.79
2018-09-26T03:43:15.606Z,84.69
2018-09-26T03:44:15.594Z,84.59
2018-09-26T03:45:15.585Z,84.38
2018-09-26T03:46:15.587Z,84.42
2018-09-26T03:47:15.562Z,84.83
2018-09-26T03:48:15.554Z,84.73
2018-09-26T03:49:15.543Z,84.52
2018-09-26T03:50:15.530Z,84.94
2018-09-26T03:51:15.537Z,84.63
2018-09-26T03:52:15.509Z,84.73
2018-09-26T03:53:15.498Z,84.42
2018-09-26T03:54:15.486Z,84.42
2018-09-26T03:55:15.476Z,84.63
2018-09-26T03:56:15.466Z,84.42
2018-09-26T03:57:15.495Z,84.52
2018-09-26T03:58:15.443Z,84.97
2018-09-26T03:59:15.432Z,84.77
2018-09-26T04:00:15.423Z,84.97
2018-09-26T04:01:15.424Z,84.97
2018-09-26T04:02:15.401Z,84.36
2018-09-26T04:03:15.401Z,84.83
2018-09-26T04:04:15.378Z,85.08
2018-09-26T04:05:15.368Z,84.87
2018-09-26T04:06:15.356Z,84.66
2018-09-26T04:07:15.359Z,84.56
2018-09-26T04:08:15.336Z,84.66
2018-09-26T04:09:15.326Z,85.70
2018-09-26T04:10:15.314Z,84.87
2018-09-26T04:11:15.323Z,85.91
2018-09-26T04:12:15.292Z,84.87
2018-09-26T04:13:15.280Z,85.70
2018-09-26T04:14:15.270Z,85.49
2018-09-26T04:15:15.257Z,85.70
2018-09-26T04:16:15.262Z,85.70
2018-09-26T04:17:15.249Z,85.39
2018-09-26T04:18:15.225Z,85.60
2018-09-26T04:19:15.224Z,85.80
2018-09-26T04:20:15.262Z,85.60
2018-09-26T04:21:15.191Z,85.18
2018-09-26T04:22:15.182Z,85.49
2018-09-26T04:23:15.183Z,85.49
2018-09-26T04:24:15.159Z,85.60
2018-09-26T04:25:15.166Z,85.91
2018-09-26T04:26:15.220Z,86.01
2018-09-26T04:27:15.243Z,85.80
2018-09-26T04:28:15.114Z,85.70
2018-09-26T04:29:15.113Z,85.70
2018-09-26T04:30:15.149Z,85.80
2018-09-26T04:31:15.096Z,86.32
2018-09-26T04:32:15.073Z,86.32
2018-09-26T04:33:15.346Z,85.49
2018-09-26T04:34:15.048Z,85.49
2018-09-26T04:35:15.052Z,85.18
2018-09-26T04:36:15.028Z,85.39
2018-09-26T04:37:15.020Z,84.77
2018-09-26T04:38:15.005Z,84.87
2018-09-26T04:39:15.007Z,85.08
2018-09-26T04:40:15.001Z,85.60
2018-09-26T04:41:14.974Z,85.28
2018-09-26T04:42:14.989Z,85.08
2018-09-26T04:43:15.011Z,85.60
2018-09-26T04:44:14.942Z,85.18
2018-09-26T04:45:14.931Z,85.18
2018-09-26T04:46:14.931Z,85.28
2018-09-26T04:47:14.908Z,85.28
2018-09-26T04:48:14.910Z,85.39
2018-09-26T04:49:14.888Z,85.18
2018-09-26T04:50:14.888Z,85.80
2018-09-26T04:51:14.882Z,85.70
2018-09-26T04:52:14.853Z,85.28
2018-09-26T04:53:14.844Z,85.91
2018-09-26T04:54:14.835Z,85.70
2018-09-26T04:55:14.845Z,85.08
2018-09-26T04:56:14.812Z,84.66
2018-09-26T04:57:14.821Z,84.56
2018-09-26T04:58:14.862Z,84.87
2018-09-26T04:59:14.783Z,84.97
2018-09-26T05:00:14.766Z,84.45
2018-09-26T05:01:14.756Z,84.25
2018-09-26T05:02:14.745Z,84.66
2018-09-26T05:03:14.745Z,84.66
2018-09-26T05:04:14.722Z,84.45
2018-09-26T05:05:14.711Z,84.83
2018-09-26T05:06:14.704Z,84.36
2018-09-26T05:07:14.710Z,84.45
2018-09-26T05:08:14.729Z,84.56
2018-09-26T05:09:14.670Z,84.56
2018-09-26T05:10:14.661Z,84.25
2018-09-26T05:11:14.649Z,83.94
2018-09-26T05:12:14.638Z,84.66
2018-09-26T05:13:14.647Z,84.56
2018-09-26T05:14:14.617Z,84.56
2018-09-26T05:15:14.605Z,84.05
2018-09-26T05:16:14.594Z,84.05
2018-09-26T05:17:14.585Z,84.05
2018-09-26T05:18:14.592Z,84.31
2018-09-26T05:19:14.576Z,84.45
2018-09-26T05:20:14.553Z,84.00
2018-09-26T05:21:14.546Z,84.66
2018-09-26T05:22:14.528Z,84.42
2018-09-26T05:23:14.695Z,84.21
2018-09-26T05:24:14.508Z,84.97
2018-09-26T05:25:14.497Z,84.83
2018-09-26T05:26:14.486Z,84.83
2018-09-26T05:27:14.475Z,84.45
2018-09-26T05:28:14.461Z,84.36
2018-09-26T05:29:14.472Z,84.56
2018-09-26T05:30:14.518Z,84.56
2018-09-26T05:31:14.432Z,84.31
2018-09-26T05:32:14.421Z,84.56
2018-09-26T05:33:14.408Z,84.56
2018-09-26T05:34:14.398Z,84.63
2018-09-26T05:35:14.402Z,84.63
2018-09-26T05:36:14.377Z,84.94
2018-09-26T05:37:14.365Z,84.83
2018-09-26T05:38:14.363Z,84.83
2018-09-26T05:39:14.359Z,85.08
2018-09-26T05:40:14.330Z,84.63
2018-09-26T05:41:14.323Z,84.77
2018-09-26T05:42:14.310Z,85.04
2018-09-26T05:43:14.297Z,85.86
2018-09-26T05:44:14.310Z,85.55
2018-09-26T05:45:14.277Z,85.66
2018-09-26T05:46:14.265Z,84.94
2018-09-26T05:47:14.256Z,84.83
2018-09-26T05:48:14.243Z,84.83
2018-09-26T05:49:14.232Z,84.83
2018-09-26T05:50:14.316Z,84.83
2018-09-26T05:51:14.211Z,84.83
2018-09-26T05:52:14.214Z,85.04
2018-09-26T05:53:14.189Z,84.94
2018-09-26T05:54:14.180Z,84.52
2018-09-26T05:55:14.182Z,84.52
2018-09-26T05:56:14.156Z,84.42
2018-09-26T05:57:14.160Z,84.42
2018-09-26T05:58:14.134Z,85.72
2018-09-26T05:59:14.126Z,85.41
2018-09-26T06:00:14.111Z,85.00
2018-09-26T06:01:14.103Z,84.89
2018-09-26T06:02:14.105Z,85.41
2018-09-26T06:03:14.080Z,85.37
2018-09-26T06:04:14.079Z,84.96
2018-09-26T06:05:14.063Z,84.48
2018-09-26T06:06:14.047Z,84.65
2018-09-26T06:07:14.050Z,84.55
2018-09-26T06:08:14.042Z,84.34
2018-09-26T06:09:14.012Z,84.34
2018-09-26T06:10:14.004Z,83.93
2018-09-26T06:11:13.992Z,84.03
2018-09-26T06:12:13.980Z,83.78
2018-09-26T06:13:13.970Z,82.75
2018-09-26T06:14:13.977Z,82.86
2018-09-26T06:15:13.948Z,82.45
2018-09-26T06:16:13.936Z,82.03
2018-09-26T06:17:13.941Z,82.14
2018-09-26T06:18:13.916Z,82.14
2018-09-26T06:19:13.914Z,82.24
2018-09-26T06:20:13.905Z,82.55
2018-09-26T06:21:13.882Z,82.24
2018-09-26T06:22:13.872Z,82.40
2018-09-26T06:23:13.858Z,82.14
2018-09-26T06:24:13.863Z,82.55
2018-09-26T06:25:13.838Z,82.24
2018-09-26T06:26:13.826Z,82.40
2018-09-26T06:27:13.832Z,83.54
2018-09-26T06:28:13.805Z,83.03
2018-09-26T06:29:13.808Z,82.78
2018-09-26T06:30:13.791Z,82.78
2018-09-26T06:31:13.773Z,83.23
2018-09-26T06:32:13.761Z,83.71
2018-09-26T06:33:13.749Z,83.61
2018-09-26T06:34:13.739Z,83.50
2018-09-26T06:35:13.739Z,83.09
2018-09-26T06:36:13.718Z,81.61
2018-09-26T06:37:13.706Z,80.41
2018-09-26T06:38:13.697Z,80.37
2018-09-26T06:39:13.685Z,80.37
2018-09-26T06:40:13.702Z,79.55
2018-09-26T06:41:13.664Z,79.96
2018-09-26T06:42:13.673Z,80.79
2018-09-26T06:43:13.640Z,81.16
2018-09-26T06:44:13.631Z,79.93
2018-09-26T06:45:13.618Z,79.30
2018-09-26T06:46:13.626Z,79.51
2018-09-26T06:47:13.599Z,79.82
2018-09-26T06:48:13.588Z,79.51
2018-09-26T06:49:13.578Z,78.28
2018-09-26T06:50:13.565Z,78.44
2018-09-26T06:51:13.571Z,79.79
2018-09-26T06:52:13.545Z,78.65
2018-09-26T06:53:13.533Z,77.31
2018-09-26T06:54:13.523Z,77.72
2018-09-26T06:55:13.511Z,77.07
2018-09-26T06:56:13.500Z,77.17
2018-09-26T06:57:13.501Z,76.76
2018-09-26T06:58:13.478Z,75.73
2018-09-26T06:59:13.482Z,75.84
2018-09-26T07:00:13.469Z,76.62
2018-09-26T07:01:13.450Z,75.90
2018-09-26T07:02:13.450Z,76.11
2018-09-26T07:03:13.422Z,75.90
2018-09-26T07:04:13.410Z,76.01
2018-09-26T07:05:13.418Z,75.76
2018-09-26T07:06:13.390Z,74.95
2018-09-26T07:07:13.403Z,74.63
2018-09-26T07:08:13.365Z,75.76
2018-09-26T07:09:13.355Z,74.63
2018-09-26T07:10:13.348Z,74.40
2018-09-26T07:11:13.348Z,74.70
2018-09-26T07:12:13.343Z,73.88
2018-09-26T07:13:13.322Z,73.47
2018-09-26T07:14:13.302Z,74.08
2018-09-26T07:15:13.287Z,73.54
2018-09-26T07:16:13.277Z,74.57
2018-09-26T07:17:13.313Z,73.54
2018-09-26T07:18:13.256Z,72.72
2018-09-26T07:19:13.241Z,72.41
2018-09-26T07:20:13.253Z,73.85
2018-09-26T07:21:13.221Z,72.61
2018-09-26T07:22:13.220Z,72.10
2018-09-26T07:23:13.212Z,72.61
2018-09-26T07:24:13.188Z,72.92
2018-09-26T07:25:13.199Z,73.44
2018-09-26T07:26:13.165Z,73.64
2018-09-26T07:27:13.154Z,73.44
2018-09-26T07:28:13.157Z,73.10
2018-09-26T07:29:13.162Z,73.81
2018-09-26T07:30:13.159Z,73.71
2018-09-26T07:31:13.112Z,72.99
2018-09-26T07:32:13.112Z,72.99
2018-09-26T07:33:13.088Z,73.47
2018-09-26T07:34:13.080Z,72.96
2018-09-26T07:35:13.069Z,72.75
2018-09-26T07:36:13.072Z,73.57
2018-09-26T07:37:13.047Z,73.06
2018-09-26T07:38:13.036Z,72.92
2018-09-26T07:39:13.026Z,71.08
2018-09-26T07:40:13.011Z,71.25
2018-09-26T07:41:13.016Z,71.66
2018-09-26T07:42:12.991Z,71.28
2018-09-26T07:43:12.980Z,70.84
2018-09-26T07:44:12.969Z,71.25
2018-09-26T07:45:12.980Z,71.25
2018-09-26T07:46:12.962Z,70.81
2018-09-26T07:47:12.937Z,69.61
2018-09-26T07:48:12.923Z,69.71
2018-09-26T07:49:12.913Z,70.09
2018-09-26T07:50:12.904Z,69.37
2018-09-26T07:51:12.908Z,69.75
2018-09-26T07:52:12.893Z,69.65
2018-09-26T07:53:13.067Z,69.54
2018-09-26T07:54:12.860Z,67.70
2018-09-26T07:55:12.847Z,68.73
2018-09-26T07:56:12.839Z,67.46
2018-09-26T07:57:12.840Z,68.38
2018-09-26T07:58:12.815Z,68.05
2018-09-26T07:59:12.848Z,67.67
2018-09-26T08:00:12.793Z,68.46
2018-09-26T08:01:12.783Z,67.64
2018-09-26T08:02:12.783Z,66.72
2018-09-26T08:03:12.759Z,65.39
2018-09-26T08:04:12.752Z,66.20
2018-09-26T08:05:12.753Z,66.10
2018-09-26T08:06:12.725Z,65.66
2018-09-26T08:07:12.719Z,65.77
2018-09-26T08:08:12.724Z,65.36
2018-09-26T08:09:12.693Z,65.66
2018-09-26T08:10:12.741Z,65.66
2018-09-26T08:11:12.689Z,64.61
2018-09-26T08:12:12.659Z,64.20
2018-09-26T08:13:12.687Z,64.20
2018-09-26T08:14:12.639Z,63.86
2018-09-26T08:15:12.626Z,64.48
2018-09-26T08:16:12.615Z,64.58
2018-09-26T08:17:12.606Z,64.58
2018-09-26T08:18:12.661Z,63.86
2018-09-26T08:19:12.596Z,63.83
2018-09-26T08:20:12.570Z,62.95
2018-09-26T08:21:12.569Z,63.83
2018-09-26T08:22:12.549Z,64.24
2018-09-26T08:23:12.536Z,63.73
2018-09-26T08:24:12.576Z,63.93
2018-09-26T08:25:12.517Z,62.88
2018-09-26T08:26:12.504Z,63.90
2018-09-26T08:27:12.514Z,64.28
2018-09-26T08:28:12.484Z,64.08
2018-09-26T08:29:12.472Z,61.94
2018-09-26T08:30:12.598Z,61.63
2018-09-26T08:31:12.455Z,61.73
2018-09-26T08:32:12.441Z,62.04
2018-09-26T08:33:12.428Z,61.43
2018-09-26T08:34:12.436Z,61.94
2018-09-26T08:35:12.407Z,62.76
2018-09-26T08:36:12.397Z,61.32
2018-09-26T08:37:12.388Z,62.24
2018-09-26T08:38:12.396Z,62.21
2018-09-26T08:39:12.362Z,62.42
2018-09-26T08:40:12.367Z,62.21
2018-09-26T08:41:12.340Z,61.57
2018-09-26T08:42:12.336Z,60.96
2018-09-26T08:43:12.321Z,60.45
2018-09-26T08:44:12.331Z,61.78
2018-09-26T08:45:12.298Z,61.37
2018-09-26T08:46:12.297Z,61.78
2018-09-26T08:47:12.277Z,60.66
2018-09-26T08:48:12.265Z,60.53
2018-09-26T08:49:12.294Z,61.34
2018-09-26T08:50:12.243Z,61.75
2018-09-26T08:51:12.234Z,62.02
2018-09-26T08:52:12.224Z,60.80
2018-09-26T08:53:12.214Z,58.87
2018-09-26T08:54:12.204Z,59.78
2018-09-26T08:55:12.214Z,59.78
2018-09-26T08:56:12.179Z,60.09
2018-09-26T08:57:12.173Z,60.06
2018-09-26T08:58:12.160Z,60.06
2018-09-26T08:59:12.147Z,59.83
2018-09-26T09:00:12.137Z,58.40
2018-09-26T09:01:12.136Z,58.38
2018-09-26T09:02:12.114Z,55.53
2018-09-26T09:03:12.104Z,55.25
2018-09-26T09:04:12.095Z,56.07
2018-09-26T09:05:12.079Z,55.86
2018-09-26T09:06:12.138Z,54.94
2018-09-26T09:07:12.071Z,55.86
2018-09-26T09:08:12.044Z,55.55
2018-09-26T09:09:12.033Z,56.37
2018-09-26T09:10:12.021Z,55.66
2018-09-26T09:11:12.012Z,56.07
2018-09-26T09:12:12.014Z,54.74
2018-09-26T09:13:11.988Z,55.33
2018-09-26T09:14:12.025Z,56.07
2018-09-26T09:15:11.965Z,54.94
2018-09-26T09:16:11.959Z,54.54
2018-09-26T09:17:11.944Z,53.11
2018-09-26T09:18:11.943Z,53.93
2018-09-26T09:19:11.920Z,53.42
2018-09-26T09:20:11.924Z,54.33
2018-09-26T09:21:11.897Z,53.42
2018-09-26T09:22:11.889Z,54.21
2018-09-26T09:23:11.873Z,53.39
2018-09-26T09:24:11.878Z,54.74
2018-09-26T09:25:11.851Z,53.80
2018-09-26T09:26:11.869Z,53.59
2018-09-26T09:27:11.898Z,53.29
2018-09-26T09:28:11.820Z,53.78
2018-09-26T09:29:11.824Z,53.47
2018-09-26T09:30:11.796Z,53.88
2018-09-26T09:31:11.785Z,53.19
2018-09-26T09:32:11.814Z,51.67
2018-09-26T09:33:11.764Z,52.08
2018-09-26T09:34:11.768Z,52.28
2018-09-26T09:35:11.755Z,52.10
2018-09-26T09:36:11.727Z,51.89
2018-09-26T09:37:11.720Z,53.52
2018-09-26T09:38:11.708Z,53.32
2018-09-26T09:39:11.696Z,53.29
2018-09-26T09:40:11.704Z,52.98
2018-09-26T09:41:11.671Z,53.50
2018-09-26T09:42:11.662Z,52.86
2018-09-26T09:43:11.652Z,52.48
2018-09-26T09:44:11.843Z,53.27
2018-09-26T09:45:11.629Z,51.84
2018-09-26T09:46:11.651Z,52.94
2018-09-26T09:47:11.603Z,52.03
2018-09-26T09:48:11.591Z,52.33
2018-09-26T09:49:11.583Z,52.43
2018-09-26T09:50:11.591Z,53.52
2018-09-26T09:51:11.560Z,51.90
2018-09-26T09:52:11.565Z,52.20
2018-09-26T09:53:11.537Z,51.59
2018-09-26T09:54:11.528Z,51.37
2018-09-26T09:55:11.515Z,50.27
2018-09-26T09:56:11.590Z,51.79
2018-09-26T09:57:11.494Z,53.42
2018-09-26T09:58:11.484Z,52.08
2018-09-26T09:59:11.474Z,51.57
2018-09-26T10:00:11.461Z,49.62
2018-09-26T10:01:11.449Z,49.41
2018-09-26T10:02:11.490Z,50.63
2018-09-26T10:03:11.561Z,49.92
2018-09-26T10:04:11.432Z,50.02
2018-09-26T10:05:11.408Z,50.40
2018-09-26T10:06:11.397Z,50.10
2018-09-26T10:07:11.384Z,49.59
2018-09-26T10:08:11.420Z,49.80
2018-09-26T10:09:11.374Z,49.72
2018-09-26T10:10:11.355Z,49.80
2018-09-26T10:11:11.340Z,49.52
2018-09-26T10:12:11.332Z,50.23
2018-09-26T10:13:11.320Z,49.92
2018-09-26T10:14:11.391Z,49.92
2018-09-26T10:15:11.300Z,49.92
2018-09-26T10:16:11.286Z,50.73
2018-09-26T10:17:11.278Z,50.02
2018-09-26T10:18:11.270Z,50.73
2018-09-26T10:19:11.274Z,50.23
2018-09-26T10:20:11.259Z,49.80
2018-09-26T10:21:11.233Z,50.08
2018-09-26T10:22:11.221Z,50.68
2018-09-26T10:23:11.209Z,49.77
2018-09-26T10:24:11.202Z,49.77
2018-09-26T10:25:11.281Z,49.57
2018-09-26T10:26:11.229Z,49.55
2018-09-26T10:27:11.168Z,49.65
2018-09-26T10:28:11.158Z,50.26
2018-09-26T10:29:11.146Z,49.85
2018-09-26T10:30:11.155Z,48.74
2018-09-26T10:31:11.123Z,49.75
2018-09-26T10:32:11.146Z,49.77
2018-09-26T10:33:11.105Z,49.47
2018-09-26T10:34:11.092Z,50.15
2018-09-26T10:35:11.081Z,49.75
2018-09-26T10:36:11.086Z,49.44
2018-09-26T10:37:11.060Z,49.65
2018-09-26T10:38:11.054Z,50.15
2018-09-26T10:39:11.036Z,50.54
2018-09-26T10:40:11.025Z,50.13
2018-09-26T10:41:11.029Z,50.03
2018-09-26T10:42:11.006Z,49.83
2018-09-26T10:43:11.000Z,49.70
2018-09-26T10:44:11.011Z,49.40
2018-09-26T10:45:10.971Z,50.31
2018-09-26T10:46:10.962Z,49.70
2018-09-26T10:47:10.988Z,49.50
2018-09-26T10:48:10.939Z,49.30
2018-09-26T10:49:10.929Z,49.70
2018-09-26T10:50:10.926Z,49.70
2018-09-26T10:51:10.907Z,48.69
2018-09-26T10:52:10.895Z,48.39
2018-09-26T10:53:10.894Z,48.18
2018-09-26T10:54:10.919Z,48.28
2018-09-26T10:55:10.864Z,48.59
2018-09-26T10:56:10.861Z,48.99
2018-09-26T10:57:10.841Z,49.50
2018-09-26T10:58:10.856Z,47.98
2018-09-26T10:59:10.821Z,47.67
2018-09-26T11:00:10.842Z,48.28
2018-09-26T11:01:10.795Z,48.28
2018-09-26T11:02:10.925Z,48.28
2018-09-26T11:03:10.776Z,48.99
2018-09-26T11:04:10.796Z,48.97
2018-09-26T11:05:10.753Z,47.55
2018-09-26T11:06:10.753Z,47.75
2018-09-26T11:07:10.730Z,47.66
2018-09-26T11:08:10.722Z,47.96
2018-09-26T11:09:10.709Z,47.96
2018-09-26T11:10:10.742Z,47.55
2018-09-26T11:11:10.687Z,49.66
2018-09-26T11:12:10.677Z,48.32
2018-09-26T11:13:10.664Z,49.22
2018-09-26T11:14:10.670Z,47.41
2018-09-26T11:15:10.659Z,47.31
2018-09-26T11:16:10.645Z,47.41
2018-09-26T11:17:10.624Z,48.42
2018-09-26T11:18:10.610Z,47.61
2018-09-26T11:19:10.599Z,47.94
2018-09-26T11:20:10.629Z,47.41
2018-09-26T11:21:10.614Z,47.31
2018-09-26T11:22:10.655Z,48.42
2018-09-26T11:23:10.556Z,47.71
2018-09-26T11:24:10.544Z,48.11
2018-09-26T11:25:10.551Z,48.22
2018-09-26T11:26:10.595Z,47.51
2018-09-26T11:27:10.515Z,48.32
2018-09-26T11:28:10.543Z,47.61
2018-09-26T11:29:10.493Z,47.63
2018-09-26T11:30:10.480Z,48.24
2018-09-26T11:31:10.485Z,47.31
2018-09-26T11:32:10.464Z,47.51
2018-09-26T11:33:10.472Z,47.20
2018-09-26T11:34:10.504Z,46.72
2018-09-26T11:35:10.426Z,47.43
2018-09-26T11:36:10.411Z,47.74
2018-09-26T11:37:10.403Z,46.72
2018-09-26T11:38:10.445Z,47.43
2018-09-26T11:39:10.398Z,47.94
2018-09-26T11:40:10.413Z,47.61
2018-09-26T11:41:10.360Z,47.71
2018-09-26T11:42:10.366Z,46.72
2018-09-26T11:43:10.336Z,47.31
2018-09-26T11:44:10.374Z,48.62
2018-09-26T11:45:10.333Z,47.49
2018-09-26T11:46:10.328Z,47.49
2018-09-26T11:47:10.295Z,48.58
2018-09-26T11:48:10.292Z,46.36
2018-09-26T11:49:10.270Z,46.56
2018-09-26T11:50:10.265Z,46.45
2018-09-26T11:51:10.249Z,47.67
2018-09-26T11:52:10.264Z,46.15
2018-09-26T11:53:10.237Z,46.66
2018-09-26T11:54:10.231Z,47.34
2018-09-26T11:55:10.204Z,45.70
2018-09-26T11:56:10.236Z,46.23
2018-09-26T11:57:10.185Z,45.93
2018-09-26T11:58:10.211Z,46.23
2018-09-26T11:59:10.176Z,45.53
2018-09-26T12:00:10.185Z,45.83
2018-09-26T12:01:10.155Z,46.23
2018-09-26T12:02:10.200Z,45.73
2018-09-26T12:03:10.119Z,44.79
2018-09-26T12:04:10.155Z,45.30
2018-09-26T12:05:10.122Z,45.40
2018-09-26T12:06:10.151Z,45.00
2018-09-26T12:07:10.662Z,45.40
2018-09-26T12:08:10.066Z,45.98
2018-09-26T12:09:10.052Z,45.07
2018-09-26T12:10:10.072Z,44.27
2018-09-26T12:11:10.049Z,44.78
2018-09-26T12:12:10.076Z,45.46
2018-09-26T12:13:10.013Z,43.87
2018-09-26T12:14:10.003Z,45.10
2018-09-26T12:15:09.987Z,46.31
2018-09-26T12:16:09.996Z,45.81
2018-09-26T12:17:09.968Z,45.68
2018-09-26T12:18:09.972Z,45.48
2018-09-26T12:19:09.976Z,45.10
2018-09-26T12:20:09.935Z,45.30
2018-09-26T12:21:09.925Z,44.59
2018-09-26T12:22:09.945Z,45.30
2018-09-26T12:23:09.909Z,45.50
2018-09-26T12:24:09.905Z,45.70
2018-09-26T12:25:09.893Z,45.81
2018-09-26T12:26:09.869Z,46.21
2018-09-26T12:27:09.870Z,46.81
2018-09-26T12:28:09.915Z,46.49
2018-09-26T12:29:09.845Z,45.89
2018-09-26T12:30:09.934Z,46.67
2018-09-26T12:31:09.812Z,45.66
2018-09-26T12:32:09.803Z,43.93
2018-09-26T12:33:09.790Z,45.26
2018-09-26T12:34:09.845Z,45.14
2018-09-26T12:35:09.776Z,44.23
2018-09-26T12:36:09.819Z,43.44
2018-09-26T12:37:09.751Z,44.55
2018-09-26T12:38:09.739Z,44.55
2018-09-26T12:39:09.728Z,44.33
2018-09-26T12:40:09.786Z,44.33
2018-09-26T12:41:09.708Z,43.34
2018-09-26T12:42:09.753Z,44.33
2018-09-26T12:43:09.689Z,44.43
2018-09-26T12:44:09.692Z,43.73
2018-09-26T12:45:09.665Z,43.73
2018-09-26T12:46:09.667Z,44.83
2018-09-26T12:47:09.712Z,43.44
2018-09-26T12:48:09.728Z,43.95
2018-09-26T12:49:09.637Z,43.14
2018-09-26T12:50:09.624Z,42.74
2018-09-26T12:51:09.605Z,42.64
2018-09-26T12:52:09.605Z,44.47